Time;durP1;ratioP1;P1;durP2;ratioP2;P2;SDS_P1;SDS_P2;PMS_P1;PMS_P2;Temp;Humidity;BMP_temperature;BMP_pressure;BME280_temperature;BME280_humidity;BME280_pressure;Samples;Min_cycle;Max_cycle;Signal;HPM_P1;HPM_P2
2022/09/28 00:00:49;;;;;;;2.85;1.20;;;10.80;99.90;;;;;;4147897;28;20176;-93
2022/09/28 00:02:51;;;;;;;4.03;1.00;;;10.70;99.90;;;;;;4163981;28;20245;-93
2022/09/28 00:04:51;;;;;;;6.63;1.20;;;10.80;99.90;;;;;;4147557;28;20324;-93
2022/09/28 00:06:52;;;;;;;5.47;1.35;;;10.90;99.90;;;;;;4147649;28;20188;-92
2022/09/28 00:08:53;;;;;;;4.95;1.20;;;10.80;99.90;;;;;;4149577;28;20250;-91
2022/09/28 00:10:55;;;;;;;1.95;1.08;;;10.90;99.90;;;;;;4150530;28;20207;-92
2022/09/28 00:12:59;;;;;;;6.13;1.20;;;11.10;99.90;;;;;;4150776;28;20279;-92
2022/09/28 00:15:00;;;;;;;2.35;0.90;;;11.10;99.90;;;;;;4167216;28;20182;-93
2022/09/28 00:17:01;;;;;;;5.20;0.90;;;11.10;99.90;;;;;;4150712;28;20176;-92
2022/09/28 00:19:05;;;;;;;2.35;0.90;;;11.00;99.90;;;;;;4150542;28;20193;-91
2022/09/28 00:21:11;;;;;;;3.88;1.05;;;11.10;99.90;;;;;;4167206;28;20180;-92
2022/09/28 00:23:12;;;;;;;5.40;1.10;;;11.10;99.90;;;;;;4150361;28;20316;-90
2022/09/28 00:25:15;;;;;;;3.83;1.05;;;10.90;99.90;;;;;;4150185;28;20192;-93
2022/09/28 00:27:16;;;;;;;2.90;1.10;;;10.80;99.90;;;;;;4166736;28;20175;-91
2022/09/28 00:29:22;;;;;;;4.10;1.00;;;11.00;99.90;;;;;;4150190;28;20197;-92
2022/09/28 00:31:23;;;;;;;4.00;0.82;;;10.90;99.90;;;;;;4166780;28;20240;-94
2022/09/28 00:33:24;;;;;;;3.95;0.90;;;10.90;99.90;;;;;;4150203;28;20311;-93
2022/09/28 00:35:25;;;;;;;4.80;0.95;;;11.00;99.90;;;;;;4167068;28;20172;-93
2022/09/28 00:37:26;;;;;;;2.15;0.90;;;11.10;99.90;;;;;;4150582;28;20176;-92
2022/09/28 00:39:27;;;;;;;3.60;0.80;;;11.00;99.90;;;;;;4166521;28;20188;-92
2022/09/28 00:41:28;;;;;;;3.08;0.98;;;11.00;99.90;;;;;;4150291;28;20176;-90
2022/09/28 00:43:29;;;;;;;5.07;1.15;;;11.00;99.90;;;;;;4150259;28;20176;-90
2022/09/28 00:45:30;;;;;;;8.02;0.90;;;11.00;99.90;;;;;;4149918;28;20596;-91
2022/09/28 00:47:36;;;;;;;3.80;0.85;;;10.90;99.90;;;;;;4150514;28;20172;-91
2022/09/28 00:49:37;;;;;;;5.88;0.93;;;10.70;99.90;;;;;;4166850;28;20287;-91
2022/09/28 00:51:40;;;;;;;8.32;1.10;;;10.60;99.90;;;;;;4150472;28;20168;-91
2022/09/28 00:53:43;;;;;;;6.78;1.08;;;10.50;99.90;;;;;;4150606;28;20664;-91
2022/09/28 00:55:54;;;;;;;2.58;0.90;;;10.60;99.90;;;;;;4150332;28;20181;-92
2022/09/28 00:57:59;;;;;;;4.15;1.23;;;10.70;99.90;;;;;;4150424;28;20641;-91
2022/09/28 01:00:02;;;;;;;10.68;1.60;;;10.70;99.90;;;;;;4150325;28;20188;-92
2022/09/28 01:02:03;;;;;;;3.40;1.25;;;10.70;99.90;;;;;;4150180;28;20200;-92
2022/09/28 01:04:04;;;;;;;6.50;1.52;;;10.70;99.90;;;;;;4166480;28;20195;-91
2022/09/28 01:06:07;;;;;;;4.25;1.45;;;10.70;99.90;;;;;;4166362;28;20172;-90
2022/09/28 01:08:09;;;;;;;6.25;1.40;;;10.60;99.90;;;;;;4149743;28;20191;-91
2022/09/28 01:10:10;;;;;;;3.28;1.38;;;10.70;99.90;;;;;;4149703;28;20192;-90
2022/09/28 01:12:11;;;;;;;8.50;1.42;;;10.80;99.90;;;;;;4166161;28;20225;-90
2022/09/28 01:14:14;;;;;;;6.30;1.33;;;10.90;99.90;;;;;;4149767;28;20173;-90
2022/09/28 01:16:24;;;;;;;5.03;1.25;;;11.00;99.90;;;;;;4166145;28;20172;-91
2022/09/28 01:18:46;;;;;;;3.97;1.30;;;11.10;99.90;;;;;;4166206;28;20184;-91
2022/09/28 01:21:01;;;;;;;7.47;1.20;;;11.10;99.90;;;;;;4165269;28;20164;-93
2022/09/28 01:23:05;;;;;;;6.35;1.15;;;11.00;99.90;;;;;;4149815;28;20278;-91
2022/09/28 01:25:16;;;;;;;4.68;1.15;;;10.90;99.90;;;;;;4149474;28;20606;-91
2022/09/28 01:27:35;;;;;;;7.93;1.50;;;10.90;99.90;;;;;;4149602;28;20270;-92
2022/09/28 01:29:54;;;;;;;8.02;1.40;;;11.00;99.90;;;;;;4149598;28;20200;-90
2022/09/28 01:32:15;;;;;;;5.43;1.27;;;11.00;99.90;;;;;;4149666;28;20184;-91
2022/09/28 01:34:24;;;;;;;9.93;1.20;;;11.20;99.90;;;;;;4165404;28;20188;-91
2022/09/28 01:37:00;;;;;;;4.82;0.90;;;11.30;99.90;;;;;;4165901;28;20172;-91
2022/09/28 01:39:16;;;;;;;4.30;1.20;;;11.10;99.90;;;;;;4140828;28;20238;-91
2022/09/28 01:41:17;;;;;;;6.50;1.20;;;10.90;99.90;;;;;;4149340;28;20177;-91
2022/09/28 01:43:24;;;;;;;3.72;1.10;;;10.80;99.90;;;;;;4149477;28;20209;-90
2022/09/28 01:45:28;;;;;;;4.68;1.08;;;10.90;99.90;;;;;;4149678;28;20180;-92
2022/09/28 01:47:32;;;;;;;5.25;1.00;;;10.90;99.90;;;;;;4149643;28;20655;-91
2022/09/28 01:49:38;;;;;;;3.88;1.27;;;10.80;99.90;;;;;;4149465;28;20197;-91
2022/09/28 01:52:03;;;;;;;7.13;1.20;;;10.80;99.90;;;;;;4149535;28;20188;-91
2022/09/28 01:54:16;;;;;;;8.05;1.30;;;10.70;99.90;;;;;;4149318;28;20173;-90
2022/09/28 01:56:34;;;;;;;3.63;1.20;;;10.60;99.90;;;;;;4149396;28;20175;-90
2022/09/28 01:58:56;;;;;;;4.50;1.20;;;10.60;99.90;;;;;;4149325;28;20180;-91
2022/09/28 02:01:24;;;;;;;6.82;1.50;;;10.70;99.90;;;;;;4149236;28;20720;-91
2022/09/28 02:03:31;;;;;;;9.30;1.42;;;10.50;99.90;;;;;;4148695;28;20628;-90
2022/09/28 02:05:38;;;;;;;6.90;1.70;;;10.50;99.90;;;;;;4149337;28;20172;-91
2022/09/28 02:07:45;;;;;;;7.63;1.73;;;10.40;99.90;;;;;;4149080;28;20246;-91
2022/09/28 02:10:01;;;;;;;2.78;1.45;;;10.40;99.90;;;;;;4148997;28;20279;-90
2022/09/28 02:12:12;;;;;;;6.78;1.60;;;10.60;99.90;;;;;;4149152;28;20172;-90
2022/09/28 02:14:16;;;;;;;7.47;2.88;;;10.60;99.90;;;;;;4149063;28;20169;-91
2022/09/28 02:16:30;;;;;;;8.27;2.80;;;10.70;99.90;;;;;;4149087;28;20172;-91
2022/09/28 02:18:31;;;;;;;5.75;1.92;;;10.60;99.90;;;;;;4148646;28;20236;-91
2022/09/28 02:20:35;;;;;;;4.15;2.00;;;10.70;99.90;;;;;;4148887;28;20189;-91
2022/09/28 02:22:44;;;;;;;6.47;1.10;;;10.60;99.90;;;;;;4148705;28;20597;-90
2022/09/28 02:24:58;;;;;;;5.82;1.20;;;10.60;99.90;;;;;;4148578;28;20184;-91
2022/09/28 02:27:09;;;;;;;3.70;1.20;;;10.60;99.90;;;;;;4165293;28;20176;-90
2022/09/28 02:29:10;;;;;;;6.68;1.08;;;10.70;99.90;;;;;;4165162;28;20856;-90
2022/09/28 02:31:11;;;;;;;5.50;1.00;;;10.70;99.90;;;;;;4165236;28;20172;-90
2022/09/28 02:33:27;;;;;;;5.75;1.35;;;10.70;99.90;;;;;;4165003;28;20180;-91
2022/09/28 02:35:28;;;;;;;3.08;0.95;;;10.70;99.90;;;;;;4148579;28;20272;-90
2022/09/28 02:37:29;;;;;;;4.20;1.00;;;10.70;99.90;;;;;;4181337;28;20214;-90
2022/09/28 02:39:30;;;;;;;3.42;1.08;;;10.70;99.90;;;;;;4148446;28;20328;-91
2022/09/28 02:41:53;;;;;;;3.40;0.80;;;10.60;99.90;;;;;;4148622;28;20172;-90
2022/09/28 02:44:17;;;;;;;2.80;0.85;;;10.50;99.90;;;;;;4164701;28;20203;-91
2022/09/28 02:46:31;;;;;;;2.45;1.05;;;10.40;99.90;;;;;;4148699;28;20665;-90
2022/09/28 02:49:03;;;;;;;2.88;0.90;;;10.50;99.90;;;;;;4165156;28;20708;-90
2022/09/28 02:51:28;;;;;;;1.65;0.70;;;10.30;99.90;;;;;;4148739;28;20176;-91
2022/09/28 02:56:24;;;;;;;8.23;0.85;;;10.10;99.90;;;;;;4152326;28;20271;-90
2022/09/28 02:58:50;;;;;;;4.72;0.88;;;10.00;99.90;;;;;;4164874;28;20175;-90
2022/09/28 03:01:10;;;;;;;2.63;0.50;;;9.90;99.90;;;;;;4164915;28;20218;-90
2022/09/28 03:03:19;;;;;;;2.22;0.55;;;9.80;99.90;;;;;;4164737;28;20696;-90
2022/09/28 03:05:43;;;;;;;3.92;0.70;;;9.80;99.90;;;;;;4148602;28;20168;-91
2022/09/28 03:07:51;;;;;;;2.05;0.60;;;9.80;99.90;;;;;;4148411;28;20172;-91
2022/09/28 03:10:18;;;;;;;5.28;0.90;;;10.00;99.90;;;;;;4148058;28;20303;-90
2022/09/28 03:12:22;;;;;;;2.53;0.60;;;9.80;99.90;;;;;;4140334;28;20189;-90
2022/09/28 03:14:23;;;;;;;3.80;0.63;;;9.80;99.90;;;;;;4148490;28;20688;-90
2022/09/28 03:16:31;;;;;;;1.25;0.55;;;9.70;99.90;;;;;;4149017;28;20179;-92
2022/09/28 03:18:32;;;;;;;2.28;0.60;;;9.80;99.90;;;;;;4164442;28;20263;-90
2022/09/28 03:20:33;;;;;;;3.05;0.50;;;9.90;99.90;;;;;;4164493;28;20207;-91
2022/09/28 03:22:33;;;;;;;6.68;0.70;;;10.00;99.90;;;;;;4148083;28;20208;-90
2022/09/28 03:24:34;;;;;;;5.95;0.77;;;10.00;99.90;;;;;;4164720;28;20191;-92
2022/09/28 03:26:37;;;;;;;6.20;0.75;;;10.00;99.90;;;;;;4148030;28;20169;-91
2022/09/28 03:28:39;;;;;;;2.63;0.55;;;10.20;99.90;;;;;;4147815;28;20173;-91
2022/09/28 03:30:42;;;;;;;6.18;0.90;;;10.20;99.90;;;;;;4148383;28;20268;-91
2022/09/28 03:32:43;;;;;;;2.67;0.63;;;10.20;99.90;;;;;;4147917;28;20161;-92
2022/09/28 03:34:44;;;;;;;1.70;0.65;;;10.20;99.90;;;;;;4164236;28;20172;-91
2022/09/28 03:36:45;;;;;;;1.25;0.73;;;10.20;99.90;;;;;;4148072;28;20171;-91
2022/09/28 03:38:46;;;;;;;4.88;1.10;;;10.10;99.90;;;;;;4147835;28;20888;-90
2022/09/28 03:40:56;;;;;;;6.65;0.90;;;10.20;99.90;;;;;;4147764;28;20227;-90
2022/09/28 03:42:59;;;;;;;1.48;0.80;;;10.10;99.90;;;;;;4148695;28;20712;-90
2022/09/28 03:45:00;;;;;;;3.20;0.80;;;10.00;99.90;;;;;;4151374;28;20256;-90
2022/09/28 03:47:00;;;;;;;6.43;1.02;;;9.90;99.90;;;;;;4151378;28;20668;-91
2022/09/28 03:49:01;;;;;;;7.13;1.08;;;9.80;99.90;;;;;;4151175;28;20188;-90
2022/09/28 03:51:08;;;;;;;3.47;1.00;;;9.70;99.90;;;;;;4151183;28;20665;-90
2022/09/28 03:53:08;;;;;;;4.40;1.10;;;9.60;99.90;;;;;;4151361;28;20168;-95
2022/09/28 03:55:10;;;;;;;3.05;0.90;;;9.60;99.90;;;;;;4150935;28;20190;-91
2022/09/28 03:57:10;;;;;;;3.20;1.20;;;9.60;99.90;;;;;;4151268;28;20180;-91
2022/09/28 03:59:11;;;;;;;9.82;1.77;;;9.60;99.90;;;;;;4151027;28;20279;-91
2022/09/28 04:01:16;;;;;;;6.97;1.70;;;9.60;99.90;;;;;;4151051;28;20161;-90
2022/09/28 04:03:18;;;;;;;5.78;1.90;;;9.50;99.90;;;;;;4151126;28;20220;-92
2022/09/28 04:05:19;;;;;;;5.82;2.17;;;9.60;99.90;;;;;;4150911;28;20173;-91
2022/09/28 04:07:19;;;;;;;4.82;1.75;;;9.50;99.90;;;;;;4150975;28;20844;-91
2022/09/28 04:09:20;;;;;;;9.70;1.90;;;9.50;99.90;;;;;;4150663;28;20264;-91
2022/09/28 04:11:21;;;;;;;5.68;1.67;;;9.50;99.90;;;;;;4150727;28;20232;-91
2022/09/28 04:13:22;;;;;;;4.53;1.80;;;9.50;99.90;;;;;;4167038;28;20176;-91
2022/09/28 04:15:23;;;;;;;10.90;4.73;;;9.40;99.90;;;;;;4167090;28;20182;-90
2022/09/28 04:17:24;;;;;;;39.38;28.42;;;9.40;99.90;;;;;;4167143;28;20180;-91
2022/09/28 04:19:26;;;;;;;33.83;29.63;;;9.40;99.90;;;;;;4166728;28;20231;-91
2022/09/28 04:21:41;;;;;;;21.10;16.08;;;9.30;99.90;;;;;;4166764;28;20275;-91
2022/09/28 04:23:47;;;;;;;9.10;5.37;;;9.40;99.90;;;;;;4151316;28;20250;-92
2022/09/28 04:25:52;;;;;;;21.10;11.85;;;9.40;99.90;;;;;;4150729;28;20161;-91
2022/09/28 04:30:12;;;;;;;7.15;4.30;;;9.30;99.90;;;;;;4167186;28;20234;-91
2022/09/28 04:32:14;;;;;;;6.70;3.22;;;9.30;99.90;;;;;;4150646;28;20177;-90
2022/09/28 04:34:18;;;;;;;10.93;3.15;;;9.30;99.90;;;;;;4150359;28;20187;-92
2022/09/28 04:36:19;;;;;;;6.93;3.45;;;9.40;99.90;;;;;;4150330;28;20173;-91
2022/09/28 04:38:21;;;;;;;14.45;4.22;;;9.40;99.90;;;;;;4150603;28;20169;-92
2022/09/28 04:40:21;;;;;;;10.02;4.43;;;9.50;99.90;;;;;;4150637;28;20239;-91
2022/09/28 04:42:23;;;;;;;10.85;6.75;;;9.60;99.90;;;;;;4150465;28;20302;-92
2022/09/28 04:44:24;;;;;;;10.32;7.65;;;9.60;99.90;;;;;;4150547;28;20180;-91
2022/09/28 04:46:31;;;;;;;6.95;4.10;;;9.60;99.90;;;;;;4151063;28;20181;-92
2022/09/28 04:48:52;;;;;;;6.05;3.60;;;9.60;99.90;;;;;;4166499;28;20160;-92
2022/09/28 04:51:13;;;;;;;8.50;3.03;;;9.60;99.90;;;;;;4173604;28;20663;-92
2022/09/28 04:53:14;;;;;;;6.15;3.10;;;9.60;99.90;;;;;;4167029;28;20168;-93
2022/09/28 04:55:15;;;;;;;7.03;3.30;;;9.60;99.90;;;;;;4149045;28;20296;-91
2022/09/28 04:57:17;;;;;;;11.82;4.00;;;9.50;99.90;;;;;;4166662;28;20176;-91
2022/09/28 04:59:18;;;;;;;16.85;5.00;;;9.60;99.90;;;;;;4150134;28;20689;-91
2022/09/28 05:01:22;;;;;;;14.40;4.57;;;9.50;99.90;;;;;;4166499;28;20671;-92
2022/09/28 05:03:43;;;;;;;8.07;3.75;;;9.40;99.90;;;;;;4166748;28;20169;-91
2022/09/28 05:06:07;;;;;;;9.05;3.88;;;9.30;99.90;;;;;;4166454;28;20172;-92
2022/09/28 05:08:15;;;;;;;9.30;3.72;;;9.20;99.90;;;;;;4166509;28;20171;-91
2022/09/28 05:10:17;;;;;;;13.68;4.22;;;9.30;99.90;;;;;;4149580;28;20288;-91
2022/09/28 05:12:18;;;;;;;7.37;4.53;;;9.20;99.90;;;;;;4166456;28;20533;-91
2022/09/28 05:14:20;;;;;;;15.90;4.25;;;9.30;99.90;;;;;;4149768;28;20330;-92
2022/09/28 05:16:21;;;;;;;14.15;5.00;;;9.40;99.90;;;;;;4149686;28;20173;-90
2022/09/28 05:18:45;;;;;;;8.83;4.70;;;9.40;99.90;;;;;;4166431;28;20235;-92
2022/09/28 05:20:45;;;;;;;14.10;5.10;;;9.40;99.90;;;;;;4166334;28;20171;-93
2022/09/28 05:22:46;;;;;;;9.80;5.38;;;9.40;99.90;;;;;;4149752;28;20672;-92
2022/09/28 05:24:47;;;;;;;9.68;5.72;;;9.50;99.90;;;;;;4149698;28;20184;-90
2022/09/28 05:26:48;;;;;;;9.88;5.60;;;9.40;99.90;;;;;;4166140;28;20514;-91
2022/09/28 05:28:49;;;;;;;15.27;5.28;;;9.30;99.90;;;;;;4149721;28;20222;-91
2022/09/28 05:31:01;;;;;;;8.00;5.38;;;9.20;99.90;;;;;;4166300;28;20552;-91
2022/09/28 05:33:23;;;;;;;11.10;5.47;;;9.20;99.90;;;;;;4166167;28;20263;-91
2022/09/28 05:35:35;;;;;;;12.50;5.70;;;9.20;99.90;;;;;;4150683;28;20227;-91
2022/09/28 05:37:37;;;;;;;11.32;5.85;;;9.20;99.90;;;;;;4165906;28;20175;-93
2022/09/28 05:39:38;;;;;;;10.18;5.35;;;9.20;99.90;;;;;;4165326;28;20251;-91
2022/09/28 05:41:39;;;;;;;14.67;5.63;;;9.10;99.90;;;;;;4149117;28;20173;-92
2022/09/28 05:43:39;;;;;;;10.80;5.53;;;9.10;99.90;;;;;;4149215;28;20213;-90
2022/09/28 05:45:40;;;;;;;11.23;5.53;;;9.20;99.90;;;;;;4149233;28;20255;-90
2022/09/28 05:47:42;;;;;;;14.05;6.28;;;9.20;99.90;;;;;;4149081;28;20162;-89
2022/09/28 05:49:44;;;;;;;16.87;6.60;;;9.20;99.90;;;;;;4149712;28;20193;-90
2022/09/28 05:51:45;;;;;;;11.85;5.88;;;9.20;99.90;;;;;;4165705;28;20625;-91
2022/09/28 05:53:47;;;;;;;15.80;5.93;;;9.10;99.90;;;;;;4149388;28;20173;-93
2022/09/28 05:55:49;;;;;;;16.93;6.30;;;9.20;99.90;;;;;;4149729;28;20179;-90
2022/09/28 05:57:50;;;;;;;23.80;12.63;;;9.30;99.90;;;;;;4149499;28;20200;-91
2022/09/28 05:59:51;;;;;;;12.43;8.18;;;9.20;99.90;;;;;;4165667;28;20192;-92
2022/09/28 06:01:51;;;;;;;63.60;33.97;;;9.30;99.90;;;;;;4149447;28;20181;-91
2022/09/28 06:03:52;;;;;;;67.57;39.47;;;9.30;99.90;;;;;;4149158;28;20192;-91
2022/09/28 06:05:54;;;;;;;17.38;7.18;;;9.40;99.90;;;;;;4148977;28;20251;-90
2022/09/28 06:07:56;;;;;;;23.75;17.75;;;9.40;99.90;;;;;;4148791;28;20177;-91
2022/09/28 06:09:58;;;;;;;20.63;7.93;;;9.40;99.90;;;;;;4165187;28;20188;-93
2022/09/28 06:12:15;;;;;;;20.88;10.88;;;9.40;99.90;;;;;;4165395;28;20557;-92
2022/09/28 06:14:22;;;;;;;19.03;8.53;;;9.60;99.90;;;;;;4165589;28;20326;-90
2022/09/28 06:16:23;;;;;;;18.03;6.63;;;9.60;99.90;;;;;;4165460;28;20187;-91
2022/09/28 06:18:23;;;;;;;20.15;6.00;;;9.60;99.90;;;;;;4148716;28;20165;-91
2022/09/28 06:20:44;;;;;;;18.45;8.73;;;9.60;99.90;;;;;;4135190;28;20227;-90
2022/09/28 06:22:53;;;;;;;16.15;6.25;;;9.80;99.90;;;;;;4164957;28;20212;-90
2022/09/28 06:24:53;;;;;;;14.73;5.63;;;9.80;99.90;;;;;;4165318;28;20183;-91
2022/09/28 06:26:54;;;;;;;14.63;6.07;;;9.80;99.90;;;;;;4148840;28;20180;-90
2022/09/28 06:28:55;;;;;;;12.77;6.07;;;9.80;99.90;;;;;;4148620;28;20231;-90
2022/09/28 06:30:59;;;;;;;11.88;7.30;;;9.80;99.90;;;;;;4148659;28;20173;-90
2022/09/28 06:33:01;;;;;;;10.70;5.75;;;9.70;99.90;;;;;;4148833;28;20169;-91
2022/09/28 06:35:03;;;;;;;15.32;7.60;;;9.70;99.90;;;;;;4148922;28;20176;-90
2022/09/28 06:37:04;;;;;;;13.52;5.97;;;9.80;99.90;;;;;;4181539;28;20579;-90
2022/09/28 06:39:06;;;;;;;13.00;5.47;;;9.90;99.90;;;;;;4164909;28;20203;-91
2022/09/28 06:41:10;;;;;;;10.63;6.13;;;9.90;99.90;;;;;;4148635;28;20232;-90
2022/09/28 06:43:14;;;;;;;14.52;6.40;;;10.50;99.90;;;;;;4164862;28;20301;-91
2022/09/28 06:45:33;;;;;;;11.57;5.57;;;11.60;99.90;;;;;;4165205;28;20679;-91
2022/09/28 06:47:59;;;;;;;10.35;4.78;;;12.60;99.90;;;;;;4159799;28;20631;-91
2022/09/28 06:50:11;;;;;;;8.98;3.72;;;13.80;99.90;;;;;;4164658;28;20196;-89
2022/09/28 06:52:40;;;;;;;8.95;3.03;;;14.40;99.90;;;;;;4152435;28;20647;-90
2022/09/28 06:54:57;;;;;;;8.85;2.47;;;15.30;99.90;;;;;;4164860;28;20179;-90
2022/09/28 06:57:13;;;;;;;12.10;2.35;;;16.10;99.90;;;;;;4150298;28;20208;-90
2022/09/28 06:59:15;;;;;;;10.45;2.42;;;16.90;99.90;;;;;;4164663;28;20699;-90
2022/09/28 07:01:16;;;;;;;13.07;2.33;;;17.60;99.90;;;;;;4164777;28;20314;-90
2022/09/28 07:03:36;;;;;;;14.32;2.63;;;18.10;99.90;;;;;;4151010;28;20778;-90
2022/09/28 07:06:15;;;;;;;11.15;2.63;;;18.90;99.90;;;;;;4175706;28;20211;-90
2022/09/28 07:08:31;;;;;;;13.18;2.72;;;19.00;99.90;;;;;;4179257;28;20217;-89
2022/09/28 07:10:55;;;;;;;10.30;2.63;;;19.20;99.90;;;;;;4177189;28;20175;-90
2022/09/28 07:13:03;;;;;;;7.53;3.10;;;18.50;99.90;;;;;;4164567;28;20238;-90
2022/09/28 07:15:12;;;;;;;10.55;2.72;;;18.40;99.90;;;;;;4164608;28;20176;-89
2022/09/28 07:17:13;;;;;;;15.07;5.07;;;18.40;99.90;;;;;;4147931;28;20177;-90
2022/09/28 07:19:15;;;;;;;7.05;2.50;;;18.10;99.90;;;;;;4148000;28;20191;-90
2022/09/28 07:21:16;;;;;;;12.63;2.63;;;18.30;99.90;;;;;;4147841;28;20177;-90
2022/09/28 07:23:17;;;;;;;9.18;2.60;;;18.70;99.90;;;;;;4164600;28;20222;-89
2022/09/28 07:25:46;;;;;;;9.98;2.63;;;18.80;99.90;;;;;;4151761;28;20172;-90
2022/09/28 07:28:10;;;;;;;6.97;2.53;;;19.10;99.90;;;;;;4164095;28;20271;-89
2022/09/28 07:30:37;;;;;;;9.63;2.33;;;19.90;99.90;;;;;;4175655;28;20176;-90
2022/09/28 07:33:08;;;;;;;8.52;2.55;;;20.30;99.90;;;;;;4164336;28;20660;-89
2022/09/28 07:35:33;;;;;;;14.88;6.88;;;20.60;99.90;;;;;;4177652;28;20171;-93
2022/09/28 07:37:34;;;;;;;16.13;8.27;;;20.70;99.90;;;;;;4164668;28;20176;-89
2022/09/28 07:41:10;;;;;;;9.23;4.20;;;21.40;99.90;;;;;;4165192;28;20180;-89
2022/09/28 07:41:56;;;;;;;67.63;35.03;;;20.90;99.90;;;;;;4164588;28;20221;-88
2022/09/28 07:44:04;;;;;;;12.77;4.97;;;19.90;99.90;;;;;;4164741;28;20232;-93
2022/09/28 07:46:12;;;;;;;41.40;21.52;;;20.50;99.90;;;;;;4164751;28;20215;-90
2022/09/28 07:48:19;;;;;;;30.60;14.85;;;19.50;99.90;;;;;;4148518;28;20185;-89
2022/09/28 07:50:51;;;;;;;10.82;4.30;;;19.90;99.90;;;;;;4150917;28;20165;-89
2022/09/28 07:53:10;;;;;;;6.82;2.47;;;19.90;99.90;;;;;;4150291;28;20179;-89
2022/09/28 07:55:34;;;;;;;10.13;2.45;;;20.40;99.90;;;;;;4163446;28;20195;-90
2022/09/28 07:57:45;;;;;;;21.83;7.88;;;20.90;99.90;;;;;;4164206;28;20176;-89
2022/09/28 08:00:04;;;;;;;44.58;20.88;;;20.80;99.90;;;;;;4149248;28;20275;-90
2022/09/28 08:02:20;;;;;;;34.17;13.45;;;20.20;99.90;;;;;;4149458;28;20201;-90
2022/09/28 08:04:22;;;;;;;22.48;9.27;;;21.00;99.90;;;;;;4147640;28;20269;-91
2022/09/28 08:06:24;;;;;;;5.22;2.00;;;21.20;99.90;;;;;;4147956;28;20255;-93
2022/09/28 08:08:25;;;;;;;32.22;13.13;;;21.70;99.90;;;;;;4147780;28;20553;-91
2022/09/28 08:10:26;;;;;;;49.30;22.42;;;22.20;99.90;;;;;;4147561;28;20193;-88
2022/09/28 08:12:30;;;;;;;9.70;2.83;;;22.00;99.90;;;;;;4164301;28;20238;-90
2022/09/28 08:14:51;;;;;;;19.70;6.00;;;22.20;99.90;;;;;;4177830;28;20179;-90
2022/09/28 08:17:11;;;;;;;15.15;6.07;;;22.60;99.90;;;;;;4178612;28;20186;-91
2022/09/28 08:19:17;;;;;;;10.13;3.20;;;22.80;99.90;;;;;;4164339;28;20231;-90
2022/09/28 08:23:39;;;;;;;32.90;13.45;;;23.70;99.90;;;;;;4163646;28;20222;-92
2022/09/28 08:25:51;;;;;;;9.25;2.38;;;23.50;99.90;;;;;;4147499;28;20223;-90
2022/09/28 08:27:55;;;;;;;5.68;2.13;;;23.00;99.90;;;;;;4147788;28;20581;-90
2022/09/28 08:29:55;;;;;;;7.35;3.28;;;23.50;99.90;;;;;;4149972;28;20196;-91
2022/09/28 08:32:11;;;;;;;9.45;1.92;;;23.50;99.90;;;;;;4167588;28;20176;-92
2022/09/28 08:34:40;;;;;;;8.75;2.00;;;23.60;99.90;;;;;;4164919;28;20206;-91
2022/09/28 08:36:59;;;;;;;7.68;2.20;;;23.50;99.90;;;;;;4181694;28;20217;-90
2022/09/28 08:39:18;;;;;;;8.18;2.17;;;23.90;99.90;;;;;;4181337;28;20210;-90
2022/09/28 08:42:09;;;;;;;11.50;2.22;;;23.70;99.90;;;;;;4166765;28;20177;-91
2022/09/28 08:44:31;;;;;;;9.35;2.33;;;23.00;99.90;;;;;;4152380;28;20227;-93
2022/09/28 08:50:17;;;;;;;10.65;4.38;;;22.90;99.90;;;;;;4166795;28;20203;-90
2022/09/28 08:52:39;;;;;;;5.65;1.70;;;22.50;99.90;;;;;;4152770;28;20177;-91
2022/09/28 08:55:25;;;;;;;6.75;2.13;;;23.00;99.90;;;;;;4181050;28;20266;-93
2022/09/28 08:57:51;;;;;;;7.60;2.05;;;22.70;99.90;;;;;;4142443;28;20181;-91
2022/09/28 08:59:58;;;;;;;8.90;2.38;;;22.90;99.90;;;;;;4150018;28;20621;-90
2022/09/28 09:02:19;;;;;;;11.48;2.35;;;23.10;99.90;;;;;;4151153;28;20209;-91
2022/09/28 09:04:20;;;;;;;8.52;2.10;;;23.60;99.90;;;;;;4166597;28;20214;-90
2022/09/28 09:06:49;;;;;;;5.78;1.92;;;23.60;99.90;;;;;;4152578;28;20256;-92
2022/09/28 09:09:20;;;;;;;5.43;1.70;;;23.30;99.90;;;;;;4166329;28;20247;-91
2022/09/28 09:11:59;;;;;;;8.95;1.60;;;23.10;99.90;;;;;;4149979;28;20179;-90
2022/09/28 09:14:12;;;;;;;10.60;2.10;;;23.00;99.90;;;;;;4150053;28;20226;-91
2022/09/28 09:16:33;;;;;;;11.35;2.22;;;22.00;99.90;;;;;;4149836;28;20707;-89
2022/09/28 09:19:14;;;;;;;9.25;1.90;;;21.60;99.90;;;;;;4151251;28;20220;-91
2022/09/28 09:21:40;;;;;;;6.60;1.75;;;20.90;99.90;;;;;;4151713;28;20173;-89
2022/09/28 09:23:46;;;;;;;6.38;1.85;;;20.30;99.90;;;;;;4150063;28;20221;-90
2022/09/28 09:25:53;;;;;;;4.47;1.58;;;19.90;99.90;;;;;;4166139;28;20275;-89
2022/09/28 09:28:06;;;;;;;7.82;1.63;;;19.60;99.90;;;;;;4149590;28;20168;-92
2022/09/28 09:30:11;;;;;;;6.68;1.48;;;19.40;99.90;;;;;;4165988;28;20245;-89
2022/09/28 09:32:46;;;;;;;6.55;1.30;;;19.50;99.90;;;;;;4149917;28;20234;-88
2022/09/28 09:35:18;;;;;;;3.38;1.40;;;19.20;99.90;;;;;;4122763;28;20271;-88
2022/09/28 09:38:03;;;;;;;5.28;1.17;;;18.20;99.90;;;;;;4152271;28;20184;-89
2022/09/28 09:40:56;;;;;;;16.38;1.90;;;17.80;99.90;;;;;;4165266;28;20254;-89
2022/09/28 09:43:54;;;;;;;6.88;1.10;;;17.70;99.90;;;;;;4166120;28;20226;-89
2022/09/28 09:47:00;;;;;;;11.40;1.60;;;17.20;99.90;;;;;;4152794;28;20173;-88
2022/09/28 09:49:33;;;;;;;10.13;1.40;;;17.00;99.90;;;;;;4152631;28;20206;-88
2022/09/28 09:52:05;;;;;;;8.20;1.48;;;16.80;99.90;;;;;;4165597;28;20658;-87
2022/09/28 09:54:12;;;;;;;5.38;1.40;;;16.80;99.90;;;;;;4149302;28;20184;-87
2022/09/28 09:56:21;;;;;;;10.13;1.40;;;16.90;99.90;;;;;;4149400;28;20208;-86
2022/09/28 09:59:09;;;;;;;3.22;1.40;;;16.50;99.90;;;;;;4151692;28;20208;-88
2022/09/28 10:01:20;;;;;;;9.48;1.55;;;16.70;99.90;;;;;;4165688;28;20176;-86
2022/09/28 10:03:50;;;;;;;5.05;1.50;;;16.70;99.90;;;;;;4162637;28;20220;-87
2022/09/28 10:06:05;;;;;;;6.00;1.25;;;16.50;99.90;;;;;;4165542;28;20194;-87
2022/09/28 10:08:16;;;;;;;8.77;1.77;;;16.40;99.90;;;;;;4165648;28;20180;-87
2022/09/28 10:10:28;;;;;;;8.02;1.75;;;16.50;99.90;;;;;;4149031;28;20259;-87
2022/09/28 10:12:38;;;;;;;6.50;1.40;;;16.40;99.90;;;;;;4150307;28;20164;-87
2022/09/28 10:14:39;;;;;;;8.07;1.55;;;16.70;99.90;;;;;;4165239;28;20607;-88
2022/09/28 10:16:43;;;;;;;3.08;1.27;;;16.80;99.90;;;;;;4149222;28;20668;-87
2022/09/28 10:18:50;;;;;;;11.85;1.70;;;16.70;99.90;;;;;;4165224;28;20187;-87
2022/09/28 10:21:13;;;;;;;7.93;1.77;;;16.90;99.90;;;;;;4165590;28;20183;-87
2022/09/28 10:23:36;;;;;;;6.40;1.50;;;17.10;99.90;;;;;;4178681;28;20231;-87
2022/09/28 10:25:38;;;;;;;6.45;1.60;;;17.00;99.90;;;;;;4165364;28;20164;-93
2022/09/28 10:27:46;;;;;;;8.73;1.67;;;16.90;99.90;;;;;;4164938;28;20712;-87
2022/09/28 10:29:58;;;;;;;18.95;2.35;;;16.80;99.90;;;;;;4148810;28;20223;-87
2022/09/28 10:31:59;;;;;;;9.90;1.80;;;16.80;99.90;;;;;;4148930;28;20214;-87
2022/09/28 10:34:07;;;;;;;72.60;4.88;;;16.90;99.90;;;;;;4165288;28;20648;-93
2022/09/28 10:36:09;;;;;;;14.68;2.28;;;16.80;99.90;;;;;;4165130;28;20168;-93
2022/09/28 10:38:16;;;;;;;22.35;3.10;;;16.70;99.90;;;;;;4165308;28;20244;-86
2022/09/28 10:40:29;;;;;;;4.82;1.02;;;16.70;99.90;;;;;;4149457;28;20196;-92
2022/09/28 10:42:32;;;;;;;28.95;3.05;;;16.70;99.90;;;;;;4164980;28;20227;-87
2022/09/28 10:44:50;;;;;;;244.52;16.13;;;16.80;99.90;;;;;;4148811;28;20208;-87
2022/09/28 10:47:16;;;;;;;104.22;7.00;;;16.70;99.90;;;;;;4165183;28;20251;-92
2022/09/28 10:49:20;;;;;;;364.23;26.15;;;16.60;99.90;;;;;;4148769;28;20365;-93
2022/09/28 10:51:48;;;;;;;74.70;6.47;;;16.60;99.90;;;;;;4149315;28;20168;-87
2022/09/28 10:54:01;;;;;;;16.25;2.33;;;16.50;99.90;;;;;;4148214;28;20231;-86
2022/09/28 10:56:20;;;;;;;7.22;1.63;;;16.60;99.90;;;;;;4150116;28;20183;-86
2022/09/28 10:58:43;;;;;;;11.65;1.77;;;16.30;99.90;;;;;;4164824;28;20168;-87
2022/09/28 11:00:51;;;;;;;11.25;1.20;;;16.40;99.90;;;;;;4149274;28;20239;-86
2022/09/28 11:02:55;;;;;;;3.85;1.17;;;16.60;99.90;;;;;;4148693;28;20212;-87
2022/09/28 11:05:00;;;;;;;6.68;1.50;;;16.60;99.90;;;;;;4148652;28;20177;-87
2022/09/28 11:07:17;;;;;;;11.10;1.55;;;16.80;99.90;;;;;;4164845;28;20190;-87
2022/09/28 11:09:28;;;;;;;5.15;1.20;;;17.10;99.90;;;;;;4148276;28;20197;-88
2022/09/28 11:11:38;;;;;;;7.18;1.40;;;17.40;99.90;;;;;;4164633;28;20226;-88
2022/09/28 11:13:50;;;;;;;9.50;1.10;;;17.30;99.90;;;;;;4148402;28;20211;-88
2022/09/28 11:15:56;;;;;;;13.98;1.23;;;17.40;99.90;;;;;;4148705;28;20180;-86
2022/09/28 11:18:25;;;;;;;7.13;1.10;;;17.60;99.90;;;;;;4149272;28;20176;-87
2022/09/28 11:20:26;;;;;;;2.90;0.93;;;17.30;99.90;;;;;;4148244;28;20195;-86
2022/09/28 11:22:43;;;;;;;11.65;1.20;;;17.40;99.90;;;;;;4164415;28;20286;-93
2022/09/28 11:24:45;;;;;;;2.38;0.98;;;17.50;99.90;;;;;;4163951;28;20187;-88
2022/09/28 11:26:49;;;;;;;2.00;0.90;;;17.60;99.90;;;;;;4148145;28;20177;-87